Terminal Aerodrome Forecast
Issued by NWS Duluth, MN

Home | Current Version | Previous Version | Text Only | Print | Product List | Glossary On
Versions: 1 2 3 4 5 6 7 8 9 10 11 12 13 14 15 16 17 18 19 20 21 22
000
FTUS43 KDLH 251737
TAFDLH
TAF
KDLH 251737Z 2518/2618 27016G22KT P6SM BKN035
      TEMPO 2518/2519 BKN030
     FM260000 28009KT P6SM SCT020 BKN040
     FM261000 30005KT 6SM BR SCT050
      TEMPO 2610/2612 4SM BR SCT008
     FM261600 25006KT P6SM FEW030=

USA.gov is the U.S. government's official web portal to all federal, state and local government web resources and services.